Hlavní strana
METAR-TAF:

METAR-TAF

Letiště :

Ponta Delgada, Azory, Portugalsko

zeměpisná šířka: 37-44N, zeměpisná délka: 025-42W, výška: 71 m

Aktuální stav počasí

Zpráva byla vytvořena před 47 minutami, v 03:00 UTC
Jihojihozápadní vítr 10 kt
Teplota 17°C
Vlhkost vzduchu 94%
Tlak 1026 hPa
Viditelnost 10 km a více
Skoro jasno ve výšce 1600 ft
Polojasno ve výšce 4500 ft

METAR: LPPD 230300Z 21010KT 9999 FEW016 SCT045 17/16 Q1026

Čas: 02:47 (03:47 UTC)

Předpověď počasí

Zpráva byla vytvořena před 4 hodinami a 47 minutami, v 23:00 UTC
Předpověď platná od 23 v 00 UTC do 23 v 24 UTC
Jihojihozápadní vítr 10 kt
Viditelnost 10 km a více
Polojasno ve výšce 1000 ft
Oblačno až skoro zataženo ve výšce 4500 ft
Pravděpodobnost 40% :
Dočasný
od 23 v 00 UTC do 23 v 24 UTC
Viditelnost: 6000 m
Polojasno ve výšce 600 ft
Oblačno až skoro zataženo ve výšce 1200 ft
slabý déšť, mrholení

TAF: LPPD 222300Z 2300/2324 21010KT 9999 SCT010 BKN045 PROB40 TEMPO 2300/2324 6000 -RADZ SCT006 BKN012

Stav a předpovědi počasí z více než 4 000 letišť (zprávy METAR a TAF).

Červené a žluté tečky na mapě představují dostupné meteorologické stanice.

Když kurzor umístíte na tečku, zobrazí se název stanice.

Pak kliknutím zobrazíte stav a předpověď počasí.

Chcete-li změnit mapu, kliknutím na zelené tlačítko se znaménkem +mapu přiblížíte, kliknutím na zelené tlačítko se znaménkem – mapu oddálíte a kliknutím na zelené šipky přejdete na sousední mapy.


METAR-TAF: